createdAt,value
2022-11-06T00:00:39.242Z,3.33
2022-11-06T00:03:06.729Z,3.70
2022-11-06T00:05:52.374Z,3.30
2022-11-06T00:08:29.782Z,3.30
2022-11-06T00:10:57.200Z,3.28
2022-11-06T00:13:24.573Z,3.33
2022-11-06T00:15:51.721Z,3.78
2022-11-06T00:18:18.811Z,3.50
2022-11-06T00:20:45.845Z,3.45
2022-11-06T00:23:12.890Z,3.40
2022-11-06T00:25:40.552Z,3.13
2022-11-06T00:28:07.618Z,3.08
2022-11-06T00:30:34.711Z,3.13
2022-11-06T00:33:01.786Z,3.30
2022-11-06T00:35:28.863Z,3.50
2022-11-06T00:37:56.184Z,3.72
2022-11-06T00:40:23.293Z,3.55
2022-11-06T00:42:53.830Z,3.78
2022-11-06T00:45:20.897Z,3.72
2022-11-06T00:47:47.973Z,3.15
2022-11-06T00:50:15.377Z,3.85
2022-11-06T00:52:42.535Z,3.45
2022-11-06T00:55:09.746Z,3.53
2022-11-06T00:57:36.832Z,3.85
2022-11-06T01:00:04.623Z,3.55
2022-11-06T01:02:31.785Z,3.97
2022-11-06T01:04:59.049Z,3.22
2022-11-06T01:07:26.114Z,3.70
2022-11-06T01:09:53.173Z,3.67
2022-11-06T01:12:20.248Z,3.25
2022-11-06T01:14:47.345Z,3.42
2022-11-06T01:17:14.647Z,3.47
2022-11-06T01:19:41.838Z,3.25
2022-11-06T01:22:08.910Z,3.30
2022-11-06T01:24:36.095Z,3.20
2022-11-06T01:29:50.328Z,3.70
2022-11-06T01:32:17.376Z,3.08
2022-11-06T01:34:44.491Z,3.10
2022-11-06T01:37:14.535Z,3.42
2022-11-06T01:39:42.064Z,3.65
2022-11-06T01:42:11.124Z,3.58
2022-11-06T01:44:44.039Z,3.63
2022-11-06T01:47:22.013Z,3.28
2022-11-06T01:49:49.677Z,3.10
2022-11-06T01:52:17.091Z,3.10
2022-11-06T01:54:45.689Z,3.10
2022-11-06T01:57:12.923Z,3.28
2022-11-06T01:59:42.011Z,3.63
2022-11-06T02:02:09.247Z,4.38
2022-11-06T02:04:42.045Z,2.67
2022-11-06T02:07:09.675Z,3.05
2022-11-06T02:09:36.837Z,3.20
2022-11-06T02:12:08.801Z,2.92
2022-11-06T02:14:35.865Z,3.22
2022-11-06T02:17:02.927Z,3.13
2022-11-06T02:19:45.170Z,3.10
2022-11-06T02:22:53.549Z,2.78
2022-11-06T02:25:29.216Z,2.92
2022-11-06T02:28:10.349Z,3.25
2022-11-06T02:30:42.312Z,2.63
2022-11-06T02:33:12.392Z,2.90
2022-11-06T02:35:43.314Z,2.67
2022-11-06T02:38:14.928Z,3.03
2022-11-06T02:40:51.015Z,2.78
2022-11-06T02:43:18.742Z,2.72
2022-11-06T02:45:51.450Z,2.58
2022-11-06T02:48:20.778Z,2.75
2022-11-06T02:50:48.945Z,2.65
2022-11-06T02:53:17.342Z,2.67
2022-11-06T02:55:47.737Z,3.20
2022-11-06T02:58:19.520Z,3.13
2022-11-06T03:00:50.072Z,2.42
2022-11-06T03:03:27.763Z,2.63
2022-11-06T03:05:58.345Z,2.30
2022-11-06T03:08:34.165Z,2.47
2022-11-06T03:11:10.378Z,2.95
2022-11-06T03:13:43.385Z,2.50
2022-11-06T03:19:00.963Z,2.38
2022-11-06T03:21:31.369Z,2.63
2022-11-06T03:24:31.038Z,2.75
2022-11-06T03:26:59.779Z,2.35
2022-11-06T03:29:26.806Z,2.75
2022-11-06T03:32:01.355Z,2.47
2022-11-06T03:34:30.389Z,2.35
2022-11-06T03:37:04.448Z,2.42
2022-11-06T03:39:33.802Z,2.33
2022-11-06T03:42:09.167Z,2.85
2022-11-06T03:44:40.275Z,2.45
2022-11-06T03:47:14.197Z,2.40
2022-11-06T03:49:43.886Z,2.20
2022-11-06T03:52:16.910Z,2.30
2022-11-06T03:54:47.549Z,2.17
2022-11-06T03:57:20.712Z,2.25
2022-11-06T04:02:18.604Z,2.25
2022-11-06T04:04:51.917Z,2.28
2022-11-06T04:07:21.425Z,2.20
2022-11-06T04:10:12.216Z,2.05
2022-11-06T04:12:58.701Z,2.08
2022-11-06T04:15:25.956Z,2.20
2022-11-06T04:17:53.205Z,2.03
2022-11-06T04:20:51.345Z,2.40
2022-11-06T04:23:25.035Z,1.92
2022-11-06T04:26:20.894Z,2.35
2022-11-06T04:29:00.932Z,1.98
2022-11-06T04:31:33.092Z,2.17
2022-11-06T04:34:05.585Z,2.08
2022-11-06T04:36:45.211Z,2.00
2022-11-06T04:39:36.611Z,2.42
2022-11-06T04:42:19.652Z,2.15
2022-11-06T04:44:54.755Z,2.35
2022-11-06T04:47:22.962Z,2.00
2022-11-06T04:49:51.454Z,2.28
2022-11-06T04:52:26.215Z,2.28
2022-11-06T04:54:54.309Z,1.85
2022-11-06T04:57:22.685Z,2.05
2022-11-06T04:59:49.733Z,2.03
2022-11-06T05:02:16.911Z,2.22
2022-11-06T05:04:44.081Z,2.35
2022-11-06T05:07:13.512Z,2.00
2022-11-06T05:09:40.735Z,2.00
2022-11-06T05:12:07.832Z,1.75
2022-11-06T05:14:34.900Z,2.08
2022-11-06T05:17:01.961Z,1.98
2022-11-06T05:19:29.027Z,2.08
2022-11-06T05:22:15.068Z,2.00
2022-11-06T05:24:42.125Z,2.10
2022-11-06T05:27:09.222Z,2.00
2022-11-06T05:29:36.254Z,2.25
2022-11-06T05:32:03.445Z,1.90
2022-11-06T05:34:30.488Z,2.00
2022-11-06T05:36:57.953Z,1.73
2022-11-06T05:39:25.055Z,1.85
2022-11-06T05:41:52.303Z,2.20
2022-11-06T05:44:19.401Z,1.90
2022-11-06T05:46:49.147Z,1.77
2022-11-06T05:49:17.513Z,2.28
2022-11-06T05:51:44.643Z,2.20
2022-11-06T05:54:11.692Z,2.20
2022-11-06T05:56:38.740Z,1.90
2022-11-06T05:59:05.785Z,1.83
2022-11-06T06:01:32.994Z,1.75
2022-11-06T06:04:00.131Z,1.70
2022-11-06T06:06:27.239Z,2.05
2022-11-06T06:08:54.278Z,2.08
2022-11-06T06:11:21.349Z,1.83
2022-11-06T06:13:48.477Z,1.92
2022-11-06T06:16:16.004Z,1.90
2022-11-06T06:18:43.102Z,1.90
2022-11-06T06:21:10.222Z,1.92
2022-11-06T06:23:37.270Z,1.90
2022-11-06T06:26:05.622Z,2.20
2022-11-06T06:28:32.848Z,2.00
2022-11-06T06:31:01.879Z,1.90
2022-11-06T06:33:29.109Z,2.17
2022-11-06T06:35:56.148Z,1.80
2022-11-06T06:38:23.298Z,2.05
2022-11-06T06:40:50.354Z,2.10
2022-11-06T06:43:17.396Z,2.05
2022-11-06T06:45:44.450Z,2.05
2022-11-06T06:48:11.893Z,1.80
2022-11-06T06:50:39.170Z,2.00
2022-11-06T06:53:06.219Z,2.03
2022-11-06T06:55:33.297Z,2.15
2022-11-06T06:58:00.889Z,1.98
2022-11-06T07:00:28.415Z,2.42
2022-11-06T07:02:55.601Z,2.33
2022-11-06T07:05:22.669Z,2.67
2022-11-06T07:07:49.757Z,2.20
2022-11-06T07:10:16.982Z,2.10
2022-11-06T07:12:44.107Z,2.13
2022-11-06T07:15:11.430Z,2.30
2022-11-06T07:17:38.504Z,2.10
2022-11-06T07:20:06.153Z,2.10
2022-11-06T07:22:37.445Z,2.22
2022-11-06T07:25:05.387Z,2.28
2022-11-06T07:27:33.456Z,2.25
2022-11-06T07:30:00.637Z,2.17
2022-11-06T07:32:28.029Z,2.17
2022-11-06T07:34:55.943Z,1.95
2022-11-06T07:37:23.038Z,2.25
2022-11-06T07:39:50.118Z,2.20
2022-11-06T07:42:17.626Z,2.20
2022-11-06T07:44:57.397Z,2.45
2022-11-06T07:47:24.530Z,2.28
2022-11-06T07:49:51.591Z,2.03
2022-11-06T07:52:18.642Z,2.17
2022-11-06T07:54:46.452Z,2.38
2022-11-06T07:57:13.564Z,2.08
2022-11-06T07:59:40.858Z,2.30
2022-11-06T08:02:10.113Z,2.15
2022-11-06T08:04:37.284Z,2.40
2022-11-06T08:07:04.333Z,2.03
2022-11-06T08:09:31.532Z,2.13
2022-11-06T08:11:58.629Z,2.00
2022-11-06T08:14:25.677Z,2.20
2022-11-06T08:16:52.750Z,2.00
2022-11-06T08:19:19.822Z,2.50
2022-11-06T08:21:46.869Z,2.20
2022-11-06T08:24:19.017Z,1.98
2022-11-06T08:26:48.678Z,1.70
2022-11-06T08:29:15.777Z,2.35
2022-11-06T08:31:42.847Z,1.85
2022-11-06T08:34:10.278Z,1.75
2022-11-06T08:36:38.799Z,1.80
2022-11-06T08:39:05.995Z,1.80
2022-11-06T08:41:33.115Z,1.83
2022-11-06T08:44:00.154Z,1.80
2022-11-06T08:46:27.254Z,2.30
2022-11-06T08:48:54.334Z,1.67
2022-11-06T08:51:21.496Z,1.80
2022-11-06T08:53:48.655Z,1.80
2022-11-06T08:56:15.824Z,1.52
2022-11-06T08:58:42.947Z,1.50
2022-11-06T09:01:10.504Z,1.40
2022-11-06T09:03:37.638Z,1.40
2022-11-06T09:06:05.773Z,1.65
2022-11-06T09:08:33.021Z,1.80
2022-11-06T09:11:00.207Z,1.50
2022-11-06T09:13:27.382Z,1.60
2022-11-06T09:15:54.490Z,1.63
2022-11-06T09:18:21.577Z,1.88
2022-11-06T09:20:48.712Z,1.67
2022-11-06T09:23:16.117Z,1.42
2022-11-06T09:25:43.488Z,1.30
2022-11-06T09:28:11.190Z,1.45
2022-11-06T09:30:38.235Z,1.60
2022-11-06T09:33:09.133Z,1.58
2022-11-06T09:35:39.392Z,1.40
2022-11-06T09:38:07.698Z,1.70
2022-11-06T09:40:36.770Z,1.75
2022-11-06T09:46:39.728Z,1.58
2022-11-06T09:49:13.084Z,1.63
2022-11-06T09:51:45.244Z,1.50
2022-11-06T09:54:23.773Z,1.30
2022-11-06T09:56:51.779Z,1.50
2022-11-06T09:59:20.119Z,1.38
2022-11-06T10:01:58.119Z,1.58
2022-11-06T10:04:45.879Z,1.55
2022-11-06T10:07:19.834Z,1.20
2022-11-06T10:09:46.920Z,1.40
2022-11-06T10:12:17.349Z,1.58
2022-11-06T10:15:03.697Z,1.17
2022-11-06T10:17:54.589Z,1.55
2022-11-06T10:20:27.580Z,1.63
2022-11-06T10:25:43.538Z,1.20
2022-11-06T10:28:25.597Z,1.30
2022-11-06T10:30:58.342Z,1.30
2022-11-06T10:33:25.606Z,1.40
2022-11-06T10:36:07.761Z,1.10
2022-11-06T10:38:36.131Z,1.10
2022-11-06T10:41:03.239Z,1.25
2022-11-06T10:43:45.170Z,1.20
2022-11-06T10:46:15.039Z,1.30
2022-11-06T10:48:46.761Z,1.27
2022-11-06T10:51:19.979Z,1.27
2022-11-06T10:53:53.086Z,1.30
2022-11-06T10:56:26.506Z,1.38
2022-11-06T10:58:54.173Z,1.40
2022-11-06T11:01:21.576Z,1.20
2022-11-06T11:03:50.605Z,1.52
2022-11-06T11:06:17.998Z,1.77
2022-11-06T11:08:47.350Z,1.60
2022-11-06T11:11:14.450Z,1.30
2022-11-06T11:13:46.178Z,1.92
2022-11-06T11:16:21.663Z,1.80
2022-11-06T11:18:49.372Z,1.92
2022-11-06T11:21:19.489Z,1.30
2022-11-06T11:23:47.165Z,1.42
2022-11-06T11:26:27.693Z,1.48
2022-11-06T11:29:03.550Z,1.50
2022-11-06T11:31:32.309Z,1.50
2022-11-06T11:34:01.701Z,1.77
2022-11-06T11:36:47.481Z,1.67
2022-11-06T11:39:15.017Z,1.80
2022-11-06T11:41:42.069Z,1.75
2022-11-06T11:44:11.863Z,1.50
2022-11-06T11:46:47.517Z,1.77
2022-11-06T11:49:27.934Z,1.80
2022-11-06T11:51:56.048Z,1.70
2022-11-06T11:54:26.739Z,1.90
2022-11-06T11:57:05.209Z,1.50
2022-11-06T11:59:47.022Z,1.40
2022-11-06T12:02:25.332Z,1.30
2022-11-06T12:04:58.773Z,1.38
2022-11-06T12:07:25.935Z,1.50
2022-11-06T12:09:53.182Z,1.23
2022-11-06T12:12:40.126Z,1.20
2022-11-06T12:15:22.211Z,1.30
2022-11-06T12:17:55.593Z,1.40
2022-11-06T12:20:30.558Z,1.25
2022-11-06T12:22:58.542Z,1.30
2022-11-06T12:25:38.418Z,1.40
2022-11-06T12:28:14.176Z,1.45
2022-11-06T12:30:43.691Z,1.50
2022-11-06T12:33:12.187Z,1.25
2022-11-06T12:35:47.177Z,1.30
2022-11-06T12:38:26.681Z,1.40
2022-11-06T12:41:21.348Z,1.50
2022-11-06T12:43:50.568Z,1.30
2022-11-06T12:46:35.200Z,1.33
2022-11-06T12:49:02.367Z,2.05
2022-11-06T12:51:41.804Z,1.52
2022-11-06T12:54:37.551Z,1.27
2022-11-06T12:57:54.941Z,1.38
2022-11-06T13:03:39.913Z,1.48
2022-11-06T13:06:25.473Z,1.30
2022-11-06T13:08:52.861Z,2.30
2022-11-06T13:11:29.369Z,1.38
2022-11-06T13:14:02.487Z,1.30
2022-11-06T13:16:35.632Z,1.25
2022-11-06T13:19:18.053Z,1.27
2022-11-06T13:21:51.223Z,1.40
2022-11-06T13:24:21.433Z,1.75
2022-11-06T13:26:51.666Z,1.30
2022-11-06T13:29:21.402Z,1.45
2022-11-06T13:31:48.436Z,1.30
2022-11-06T13:34:22.789Z,1.20
2022-11-06T13:36:50.272Z,1.50
2022-11-06T13:39:43.363Z,1.50
2022-11-06T13:42:41.642Z,1.20
2022-11-06T13:45:09.198Z,1.33
2022-11-06T13:47:38.978Z,1.23
2022-11-06T13:50:22.516Z,1.58
2022-11-06T13:52:56.439Z,1.60
2022-11-06T13:55:29.555Z,1.67
2022-11-06T13:58:05.776Z,1.55
2022-11-06T14:00:33.052Z,1.65
2022-11-06T14:03:06.116Z,1.50
2022-11-06T14:08:03.543Z,1.58
2022-11-06T14:10:37.029Z,1.40
2022-11-06T14:13:05.463Z,1.40
2022-11-06T14:15:35.202Z,1.42
2022-11-06T14:18:02.628Z,1.55
2022-11-06T14:20:36.389Z,1.60
2022-11-06T14:23:31.142Z,1.77
2022-11-06T14:25:58.905Z,1.30
2022-11-06T14:28:33.638Z,1.60
2022-11-06T14:31:21.521Z,1.67
2022-11-06T14:33:49.277Z,1.70
2022-11-06T14:36:25.506Z,1.45
2022-11-06T14:38:55.711Z,1.23
2022-11-06T14:41:34.952Z,1.40
2022-11-06T14:44:06.717Z,1.40
2022-11-06T14:46:34.220Z,1.40
2022-11-06T14:49:30.660Z,2.00
2022-11-06T14:51:59.195Z,1.60
2022-11-06T14:54:26.327Z,1.75
2022-11-06T14:56:54.419Z,1.92
2022-11-06T14:59:30.811Z,1.70
2022-11-06T15:02:00.806Z,1.50
2022-11-06T15:04:32.565Z,1.40
2022-11-06T15:07:07.850Z,1.50
2022-11-06T15:09:37.888Z,1.98
2022-11-06T15:12:08.624Z,1.63
2022-11-06T15:14:35.675Z,1.65
2022-11-06T15:17:21.864Z,2.90
2022-11-06T15:20:05.713Z,1.60
2022-11-06T15:22:32.741Z,1.70
2022-11-06T15:25:11.404Z,1.48
2022-11-06T15:27:47.235Z,1.38
2022-11-06T15:30:18.373Z,1.90
2022-11-06T15:32:46.718Z,1.88
2022-11-06T15:35:16.699Z,2.00
2022-11-06T15:37:48.153Z,1.60
2022-11-06T15:40:26.345Z,1.52
2022-11-06T15:42:53.704Z,1.50
2022-11-06T15:45:25.819Z,1.95
2022-11-06T15:48:23.674Z,1.80
2022-11-06T15:50:50.756Z,1.73
2022-11-06T15:53:20.556Z,1.60
2022-11-06T15:56:02.445Z,1.75
2022-11-06T15:58:33.418Z,1.70
2022-11-06T16:01:01.911Z,1.33
2022-11-06T16:03:31.226Z,1.70
2022-11-06T16:05:59.816Z,1.40
2022-11-06T16:08:29.476Z,1.30
2022-11-06T16:10:57.456Z,1.45
2022-11-06T16:13:26.132Z,1.40
2022-11-06T16:16:34.604Z,1.60
2022-11-06T16:19:02.408Z,2.10
2022-11-06T16:21:31.497Z,1.95
2022-11-06T16:23:58.540Z,2.00
2022-11-06T16:26:28.733Z,1.70
2022-11-06T16:28:57.089Z,1.73
2022-11-06T16:31:25.441Z,1.77
2022-11-06T16:33:55.980Z,1.65
2022-11-06T16:36:23.448Z,1.77
2022-11-06T16:38:50.630Z,1.45
2022-11-06T16:41:37.175Z,1.70
2022-11-06T16:44:23.602Z,1.98
2022-11-06T16:47:10.199Z,1.90
2022-11-06T16:49:41.341Z,1.70
2022-11-06T16:52:17.457Z,2.05
2022-11-06T16:54:51.683Z,1.60
2022-11-06T16:57:21.075Z,1.52
2022-11-06T16:59:56.041Z,1.92
2022-11-06T17:02:24.761Z,1.63
2022-11-06T17:04:51.999Z,1.60
2022-11-06T17:07:22.608Z,1.40
2022-11-06T17:09:49.661Z,1.80
2022-11-06T17:12:16.755Z,2.00
2022-11-06T17:14:44.852Z,1.98
2022-11-06T17:17:27.424Z,1.75
2022-11-06T17:19:54.654Z,1.50
2022-11-06T17:22:22.815Z,1.92
2022-11-06T17:24:49.880Z,1.63
2022-11-06T17:27:16.918Z,1.63
2022-11-06T17:29:44.003Z,2.10
2022-11-06T17:32:11.055Z,2.03
2022-11-06T17:34:38.141Z,2.00
2022-11-06T17:37:05.230Z,1.35
2022-11-06T17:39:32.972Z,1.88
2022-11-06T17:42:00.156Z,2.00
2022-11-06T17:44:27.706Z,1.50
2022-11-06T17:46:54.754Z,1.67
2022-11-06T17:49:21.833Z,1.70
2022-11-06T17:52:01.150Z,1.55
2022-11-06T17:56:57.642Z,1.90
2022-11-06T17:59:24.874Z,1.95
2022-11-06T18:01:52.624Z,1.75
2022-11-06T18:04:20.636Z,2.45
2022-11-06T18:06:48.998Z,1.90
2022-11-06T18:09:16.109Z,2.10
2022-11-06T18:11:43.698Z,2.15
2022-11-06T18:14:11.391Z,2.33
2022-11-06T18:16:43.431Z,2.30
2022-11-06T18:19:12.269Z,2.25
2022-11-06T18:21:39.351Z,2.15
2022-11-06T18:24:06.664Z,2.28
2022-11-06T18:26:33.852Z,2.10
2022-11-06T18:29:00.910Z,2.30
2022-11-06T18:31:28.027Z,2.10
2022-11-06T18:33:55.105Z,2.40
2022-11-06T18:36:22.197Z,2.30
2022-11-06T18:38:49.335Z,2.50
2022-11-06T18:41:17.822Z,2.30
2022-11-06T18:43:45.257Z,2.22
2022-11-06T18:46:13.724Z,2.53
2022-11-06T18:48:41.118Z,2.75
2022-11-06T18:51:12.372Z,2.67
2022-11-06T18:53:40.333Z,2.60
2022-11-06T18:56:14.542Z,2.50
2022-11-06T18:58:42.086Z,2.30
2022-11-06T19:01:10.453Z,2.63
2022-11-06T19:03:39.290Z,2.80
2022-11-06T19:06:08.777Z,3.05
2022-11-06T19:08:37.448Z,2.67
2022-11-06T19:11:04.999Z,2.75
2022-11-06T19:13:32.175Z,2.60
2022-11-06T19:15:59.597Z,3.08
2022-11-06T19:18:30.428Z,2.90
2022-11-06T19:20:57.918Z,2.67
2022-11-06T19:23:25.068Z,3.30
2022-11-06T19:26:10.320Z,2.28
2022-11-06T19:28:39.660Z,2.92
2022-11-06T19:31:06.763Z,3.20
2022-11-06T19:33:35.292Z,3.33
2022-11-06T19:36:03.343Z,3.13
2022-11-06T19:38:30.674Z,3.60
2022-11-06T19:40:58.919Z,3.78
2022-11-06T19:43:26.033Z,3.13
2022-11-06T19:45:53.225Z,3.30
2022-11-06T19:48:23.716Z,3.15
2022-11-06T19:50:59.876Z,3.70
2022-11-06T19:53:27.681Z,3.50
2022-11-06T19:55:55.961Z,3.78
2022-11-06T19:58:23.625Z,3.95
2022-11-06T20:00:50.773Z,3.92
2022-11-06T20:03:18.243Z,3.90
2022-11-06T20:05:45.624Z,4.05
2022-11-06T20:08:12.887Z,4.32
2022-11-06T20:10:41.407Z,4.10
2022-11-06T20:13:09.067Z,3.97
2022-11-06T20:15:36.491Z,4.10
2022-11-06T20:18:03.641Z,4.30
2022-11-06T20:20:35.975Z,4.25
2022-11-06T20:23:04.184Z,4.10
2022-11-06T20:25:31.337Z,4.75
2022-11-06T20:27:58.441Z,4.47
2022-11-06T20:30:32.200Z,5.55
2022-11-06T20:32:59.369Z,5.00
2022-11-06T20:35:27.068Z,4.40
2022-11-06T20:37:54.248Z,4.60
2022-11-06T20:40:21.307Z,4.60
2022-11-06T20:42:48.397Z,4.20
2022-11-06T20:45:15.639Z,4.30
2022-11-06T20:47:42.849Z,4.22
2022-11-06T20:50:10.077Z,4.13
2022-11-06T20:52:37.230Z,4.53
2022-11-06T20:55:04.895Z,4.35
2022-11-06T20:57:32.209Z,4.55
2022-11-06T20:59:59.274Z,4.22
2022-11-06T21:02:26.474Z,4.65
2022-11-06T21:04:53.754Z,4.65
2022-11-06T21:07:20.823Z,4.50
2022-11-06T21:09:47.921Z,4.20
2022-11-06T21:12:15.162Z,4.60
2022-11-06T21:14:42.398Z,4.53
2022-11-06T21:17:09.581Z,4.35
2022-11-06T21:19:37.133Z,4.50
2022-11-06T21:22:04.270Z,4.35
2022-11-06T21:24:31.403Z,4.65
2022-11-06T21:26:58.555Z,4.20
2022-11-06T21:29:25.895Z,4.95
2022-11-06T21:31:53.113Z,4.65
2022-11-06T21:34:20.356Z,4.35
2022-11-06T21:36:47.974Z,4.10
2022-11-06T21:39:16.469Z,4.38
2022-11-06T21:41:43.629Z,4.35
2022-11-06T21:44:14.605Z,4.43
2022-11-06T21:46:45.135Z,4.15
2022-11-06T21:49:13.431Z,4.20
2022-11-06T21:51:40.539Z,3.88
2022-11-06T21:54:30.711Z,4.13
2022-11-06T21:56:57.856Z,4.20
2022-11-06T21:59:26.328Z,4.18
2022-11-06T22:01:53.576Z,3.83
2022-11-06T22:04:20.824Z,3.97
2022-11-06T22:06:47.925Z,4.20
2022-11-06T22:09:17.460Z,4.15
2022-11-06T22:11:47.819Z,4.15
2022-11-06T22:14:16.114Z,3.97
2022-11-06T22:16:44.357Z,4.00
2022-11-06T22:19:12.127Z,4.40
2022-11-06T22:21:40.509Z,4.13
2022-11-06T22:24:08.435Z,4.15
2022-11-06T22:26:37.684Z,4.03
2022-11-06T22:29:07.495Z,3.95
2022-11-06T22:31:35.066Z,3.88
2022-11-06T22:34:02.274Z,3.97
2022-11-06T22:36:29.529Z,3.80
2022-11-06T22:38:58.826Z,3.90
2022-11-06T22:41:25.927Z,3.70
2022-11-06T22:43:53.245Z,4.22
2022-11-06T22:46:22.520Z,4.05
2022-11-06T22:48:50.755Z,3.72
2022-11-06T22:51:19.751Z,3.15
2022-11-06T22:53:46.819Z,3.15
2022-11-06T22:56:14.200Z,4.10
2022-11-06T22:58:41.867Z,4.07
2022-11-06T23:01:09.908Z,3.42
2022-11-06T23:03:37.526Z,3.85
2022-11-06T23:06:05.973Z,3.63
2022-11-06T23:08:33.237Z,3.63
2022-11-06T23:11:06.194Z,3.65
2022-11-06T23:13:33.251Z,3.72
2022-11-06T23:16:05.136Z,3.90
2022-11-06T23:18:32.188Z,3.85
2022-11-06T23:20:59.239Z,3.95
2022-11-06T23:23:26.360Z,3.67
2022-11-06T23:25:53.628Z,4.03
2022-11-06T23:28:20.722Z,4.13
2022-11-06T23:30:47.802Z,3.70
2022-11-06T23:33:15.140Z,4.00
2022-11-06T23:35:42.352Z,3.65
2022-11-06T23:38:09.535Z,3.53
2022-11-06T23:40:36.736Z,3.70
2022-11-06T23:43:03.847Z,3.65
2022-11-06T23:45:49.274Z,4.13
2022-11-06T23:48:17.115Z,3.38
2022-11-06T23:50:46.910Z,3.40
2022-11-06T23:53:17.605Z,3.42
2022-11-06T23:55:44.914Z,3.90
2022-11-06T23:58:12.034Z,3.65
